Time;durP1;ratioP1;P1;durP2;ratioP2;P2;SDS_P1;SDS_P2;PMS_P1;PMS_P2;Temp;Humidity;BMP_temperature;BMP_pressure;BME280_temperature;BME280_humidity;BME280_pressure;Samples;Min_cycle;Max_cycle;Signal;HPM_P1;HPM_P2
2023/07/13 00:02:24;;;;;;;6.80;1.77;;;17.30;99.90;;;16.49;86.67;100806.78;4978081;28;20084;-74
2023/07/13 00:04:50;;;;;;;4.70;1.50;;;17.30;99.90;;;16.51;86.42;100812.84;4983505;28;20073;-73
2023/07/13 00:07:19;;;;;;;12.27;2.10;;;17.30;99.90;;;16.50;86.74;100808.47;4987024;28;20077;-73
2023/07/13 00:09:46;;;;;;;4.22;1.60;;;17.30;99.90;;;16.50;87.00;100806.69;4989291;28;20494;-74
2023/07/13 00:12:28;;;;;;;7.70;2.05;;;17.40;99.90;;;16.50;86.86;100796.06;4974658;28;20072;-74
2023/07/13 00:15:00;;;;;;;4.75;1.92;;;17.30;99.90;;;16.47;87.43;100801.56;4979237;28;20093;-74
2023/07/13 00:17:27;;;;;;;7.15;1.80;;;17.30;99.90;;;16.47;87.28;100803.38;4985386;28;20053;-74
2023/07/13 00:19:55;;;;;;;6.10;1.77;;;17.30;99.90;;;16.48;87.59;100807.72;4972616;28;20440;-74
2023/07/13 00:22:23;;;;;;;6.38;1.98;;;17.30;99.90;;;16.47;87.94;100800.72;4978329;28;20042;-73
2023/07/13 00:24:51;;;;;;;6.80;1.73;;;17.30;99.90;;;16.48;87.71;100813.03;4986005;28;20400;-74
2023/07/13 00:27:18;;;;;;;3.83;1.60;;;17.30;99.90;;;16.48;88.08;100818.34;4995049;28;20127;-73
2023/07/13 00:29:44;;;;;;;4.05;1.80;;;17.30;99.90;;;16.47;88.21;100820.19;4994528;28;20038;-74
2023/07/13 00:32:11;;;;;;;7.70;1.50;;;17.30;99.90;;;16.47;88.79;100806.03;4986255;28;20074;-74
2023/07/13 00:34:38;;;;;;;4.63;1.83;;;17.30;99.90;;;16.45;89.15;100813.28;4993982;28;20447;-74
2023/07/13 00:37:06;;;;;;;7.75;1.92;;;17.30;99.90;;;16.42;89.28;100806.38;4995126;28;20085;-73
2023/07/13 00:39:34;;;;;;;6.70;1.88;;;17.20;99.90;;;16.41;89.12;100807.31;4994882;28;20540;-73
2023/07/13 00:42:01;;;;;;;6.88;1.90;;;17.20;99.90;;;16.37;88.91;100805.81;4971088;28;20038;-73
2023/07/13 00:44:27;;;;;;;7.40;1.70;;;17.20;99.90;;;16.33;89.30;100799.88;4976378;28;20038;-73
2023/07/13 00:46:55;;;;;;;5.72;1.80;;;17.20;99.90;;;16.30;89.33;100801.91;4977866;28;20399;-74
2023/07/13 00:49:23;;;;;;;9.13;2.13;;;17.10;99.90;;;16.25;89.31;100799.56;4993677;28;20184;-73
2023/07/13 00:51:57;;;;;;;4.50;1.75;;;17.10;99.90;;;16.17;89.22;100799.25;4978166;28;20037;-74
2023/07/13 00:54:45;;;;;;;8.52;2.20;;;17.00;99.90;;;16.09;89.35;100807.75;4951906;28;20042;-74
2023/07/13 00:57:17;;;;;;;6.45;1.90;;;16.90;99.90;;;15.99;89.16;100801.34;4978769;28;20065;-74
2023/07/13 00:59:50;;;;;;;4.30;1.60;;;16.80;99.90;;;15.89;88.89;100792.31;4953679;28;20030;-74
2023/07/13 01:02:17;;;;;;;6.55;1.80;;;16.70;99.90;;;15.80;89.02;100791.13;4965740;28;20146;-74
2023/07/13 01:04:43;;;;;;;8.30;1.70;;;16.70;99.90;;;15.72;89.09;100794.31;4970777;28;20089;-74
2023/07/13 01:07:10;;;;;;;7.40;1.95;;;16.60;99.90;;;15.65;89.25;100787.66;4980734;28;20068;-73
2023/07/13 01:09:36;;;;;;;7.07;2.35;;;16.50;99.90;;;15.57;89.94;100787.31;4980243;28;20054;-73
2023/07/13 01:12:03;;;;;;;7.68;2.20;;;16.40;99.90;;;15.50;90.32;100794.00;4988272;28;20104;-73
2023/07/13 01:14:29;;;;;;;6.40;2.08;;;16.40;99.90;;;15.43;90.66;100798.00;4986271;28;20034;-73
2023/07/13 01:16:56;;;;;;;6.00;2.47;;;16.30;99.90;;;15.35;91.70;100796.69;4982026;28;20042;-73
2023/07/13 01:19:39;;;;;;;8.02;2.50;;;16.20;99.90;;;15.28;92.54;100803.34;4975300;28;20038;-73
2023/07/13 01:22:15;;;;;;;5.72;2.17;;;16.20;99.90;;;15.22;92.93;100805.56;4978863;28;20054;-74
2023/07/13 01:24:45;;;;;;;4.82;2.30;;;16.10;99.90;;;15.14;92.88;100814.00;4980240;28;20121;-73
2023/07/13 01:27:14;;;;;;;7.45;2.42;;;16.10;99.90;;;15.09;93.46;100813.47;4979957;28;20023;-74
2023/07/13 01:29:43;;;;;;;10.65;2.55;;;16.00;99.90;;;15.04;93.75;100818.22;4982516;28;20230;-73
2023/07/13 01:32:22;;;;;;;6.60;2.30;;;16.00;99.90;;;15.00;94.04;100814.06;4997589;28;20520;-73
2023/07/13 01:34:48;;;;;;;8.55;2.75;;;15.90;99.90;;;14.95;94.29;100815.19;4972645;28;20113;-73
2023/07/13 01:37:14;;;;;;;6.97;2.60;;;15.90;99.90;;;14.95;94.81;100820.50;4998947;28;20464;-73
2023/07/13 01:39:40;;;;;;;7.55;2.42;;;15.90;99.90;;;14.93;95.27;100821.53;4990107;28;20106;-73
2023/07/13 01:42:06;;;;;;;;;;;15.90;99.90;;;14.91;95.60;100821.63;4986852;28;20034;-74
2023/07/13 01:44:32;;;;;;;5.97;2.38;;;15.90;99.90;;;14.92;95.47;100826.00;4973511;28;20538;-74
2023/07/13 01:46:58;;;;;;;6.13;2.55;;;15.90;99.90;;;14.97;95.80;100833.66;4982985;28;20042;-74
2023/07/13 01:49:23;;;;;;;;;;;15.90;99.90;;;14.98;96.21;100845.97;4998244;28;20038;-73
2023/07/13 01:51:49;;;;;;;9.27;3.20;;;15.90;99.90;;;14.99;96.25;100842.38;4980971;28;19924;-73
2023/07/13 01:54:15;;;;;;;9.93;3.13;;;15.90;99.90;;;15.03;96.40;100837.72;4998848;28;20121;-73
2023/07/13 01:56:41;;;;;;;;;;;15.90;99.90;;;15.02;97.00;100842.16;4981601;28;20046;-73
2023/07/13 01:59:08;;;;;;;;;;;16.00;99.90;;;15.00;97.28;100848.53;4974477;28;20000;-74
2023/07/13 02:01:34;;;;;;;;;;;16.00;99.90;;;14.98;97.54;100852.09;4972862;28;19964;-74
2023/07/13 02:03:59;;;;;;;;;;;15.90;99.90;;;15.00;97.73;100853.81;4982805;28;20301;-74
2023/07/13 02:06:25;;;;;;;;;;;16.00;99.90;;;15.03;97.20;100853.63;4979495;28;19926;-73
2023/07/13 02:08:54;;;;;;;;;;;16.00;99.90;;;15.05;97.35;100852.56;4981904;28;19936;-73
2023/07/13 02:11:20;;;;;;;;;;;16.00;99.90;;;15.09;97.00;100842.63;4972912;28;19945;-74
2023/07/13 02:13:45;;;;;;;;;;;16.00;99.90;;;15.10;96.73;100849.66;4974244;28;19920;-74
2023/07/13 02:16:11;;;;;;;;;;;16.00;99.90;;;15.08;96.67;100855.03;4981100;28;19921;-73
2023/07/13 02:18:37;;;;;;;;;;;16.00;99.90;;;15.06;96.50;100859.59;4982999;28;19917;-73
2023/07/13 02:21:03;;;;;;;;;;;16.00;99.90;;;15.04;95.78;100850.03;4979315;28;19914;-73
2023/07/13 02:23:29;;;;;;;;;;;16.00;99.90;;;15.00;95.86;100848.53;4982345;28;19929;-73
2023/07/13 02:25:56;;;;;;;;;;;16.00;99.90;;;14.93;96.10;100838.31;4965589;28;19917;-73
2023/07/13 02:28:22;;;;;;;;;;;15.90;99.90;;;14.92;95.91;100847.22;4980667;28;19924;-73
2023/07/13 02:30:47;;;;;;;;;;;15.90;99.90;;;14.92;95.97;100847.22;4963563;28;19913;-73
2023/07/13 02:33:13;;;;;;;;;;;16.00;99.90;;;14.94;95.80;100855.91;4964187;28;19920;-73
2023/07/13 02:35:39;;;;;;;;;;;15.90;99.90;;;14.94;96.03;100858.53;4969244;28;19922;-73
2023/07/13 02:38:04;;;;;;;;;;;15.90;99.90;;;14.95;95.89;100860.25;4967100;28;19917;-73
2023/07/13 02:40:33;;;;;;;;;;;15.90;99.90;;;14.94;95.85;100853.25;4972129;28;19971;-73
2023/07/13 02:42:59;;;;;;;;;;;15.90;99.90;;;14.95;95.58;100862.06;4980366;28;19945;-73
2023/07/13 02:45:25;;;;;;;;;;;15.90;99.90;;;14.94;96.15;100861.19;4980428;28;19917;-73
2023/07/13 02:47:51;;;;;;;;;;;15.90;99.90;;;14.94;96.42;100860.34;4965643;28;19959;-74
2023/07/13 02:50:17;;;;;;;;;;;15.90;99.90;;;14.91;96.61;100866.72;4981145;28;19920;-74
2023/07/13 02:52:42;;;;;;;;;;;15.90;99.90;;;14.92;96.50;100873.72;4981817;28;19929;-73
2023/07/13 02:55:08;;;;;;;;;;;15.90;99.90;;;14.91;96.32;100872.00;4976886;28;19928;-73
2023/07/13 02:57:34;;;;;;;;;;;15.90;99.90;;;14.90;96.26;100874.75;4975749;28;19987;-73
2023/07/13 03:00:01;;;;;;;;;;;15.90;99.90;;;14.88;96.90;100872.22;4974408;28;20460;-73
2023/07/13 03:02:28;;;;;;;;;;;15.90;99.90;;;14.87;96.61;100875.78;4985968;28;19913;-73
2023/07/13 03:04:55;;;;;;;;;;;15.80;99.90;;;14.89;96.69;100871.25;4978417;28;19949;-73
2023/07/13 03:07:21;;;;;;;;;;;15.90;99.90;;;14.89;96.56;100868.59;4980247;28;19916;-73
2023/07/13 03:09:46;;;;;;;;;;;15.80;99.90;;;14.92;96.56;100868.44;4979485;28;19926;-74
2023/07/13 03:12:12;;;;;;;;;;;15.90;99.90;;;14.95;95.93;100878.81;4980478;28;19913;-74
2023/07/13 03:14:38;;;;;;;;;;;15.90;99.90;;;14.96;95.72;100880.50;4972385;28;19917;-73
2023/07/13 03:17:03;;;;;;;;;;;15.90;99.90;;;14.95;95.37;100881.47;4983216;28;20373;-73
2023/07/13 03:19:29;;;;;;;;;;;15.90;99.90;;;14.94;94.72;100882.41;4983113;28;20402;-73
2023/07/13 03:21:55;;;;;;;;;;;15.90;99.90;;;14.89;94.81;100879.22;4963756;28;19928;-74
2023/07/13 03:24:23;;;;;;;;;;;15.80;99.90;;;14.87;94.14;100881.09;4982486;28;20035;-73
2023/07/13 03:26:49;;;;;;;;;;;15.80;99.90;;;14.86;93.91;100883.84;4974275;28;19926;-73
2023/07/13 03:29:14;;;;;;;;;;;15.80;99.90;;;14.88;93.57;100882.81;4993430;28;19925;-73
2023/07/13 03:31:40;;;;;;;;;;;15.80;99.90;;;14.92;94.31;100894.06;4981984;28;19918;-73
2023/07/13 03:34:06;;;;;;;;;;;15.80;99.90;;;14.98;94.83;100904.28;4979766;28;19918;-73
2023/07/13 03:36:32;;;;;;;;;;;15.90;99.90;;;15.03;95.39;100896.94;4979241;28;19921;-73
2023/07/13 03:39:01;;;;;;;;;;;15.90;99.90;;;15.07;95.57;100898.41;4981800;28;19918;-73
2023/07/13 03:41:27;;;;;;;;;;;16.00;99.90;;;15.12;95.40;100900.78;4956267;28;20015;-73
2023/07/13 03:43:53;;;;;;;;;;;16.00;99.90;;;15.17;95.39;100904.84;4972805;28;19971;-73
2023/07/13 03:46:19;;;;;;;;;;;16.00;99.90;;;15.23;95.15;100908.91;4988138;28;19913;-73
2023/07/13 03:48:46;;;;;;;;;;;16.10;99.90;;;15.24;95.91;100910.59;4973575;28;19926;-74
2023/07/13 03:51:14;;;;;;;;;;;16.10;99.90;;;15.26;96.77;100918.47;4978778;28;20032;-73
2023/07/13 03:53:42;;;;;;;;;;;16.10;99.90;;;15.31;96.05;100921.69;4962856;28;20032;-72
2023/07/13 03:56:08;;;;;;;;;;;16.20;99.90;;;15.35;95.33;100916.09;4988559;28;19920;-73
2023/07/13 03:58:39;;;;;;;;;;;16.20;99.90;;;15.43;94.54;100920.06;4980062;28;19921;-74
2023/07/13 04:01:07;;;;;;;;;;;16.20;99.90;;;15.47;94.46;100921.59;4963244;28;19925;-72
2023/07/13 04:03:34;;;;;;;;;;;16.30;99.90;;;15.52;94.80;100920.31;4979502;28;20294;-73
2023/07/13 04:06:01;;;;;;;;;;;16.40;99.90;;;15.59;94.83;100921.66;4976327;28;19936;-72
2023/07/13 04:08:32;;;;;;;;;;;16.40;99.90;;;15.66;94.43;100921.22;4977672;28;19925;-72
2023/07/13 04:10:58;;;;;;;;;;;16.50;99.90;;;15.73;94.02;100918.13;4978388;28;19913;-73
2023/07/13 04:13:25;;;;;;;;;;;16.50;99.90;;;15.80;93.36;100913.25;4971942;28;19932;-73
2023/07/13 04:15:51;;;;;;;;;;;16.60;99.90;;;15.89;93.34;100911.78;4978988;28;19953;-73
2023/07/13 04:18:17;;;;;;;;;;;16.50;99.90;;;15.99;92.51;100912.91;4970715;28;19917;-74
2023/07/13 04:20:43;;;;;;;;;;;16.70;99.90;;;16.09;91.89;100908.69;4972682;28;20518;-74
2023/07/13 04:23:08;;;;;;;;;;;16.80;99.90;;;16.22;90.99;100913.16;4980092;28;19918;-73
2023/07/13 04:25:34;;;;;;;;;;;16.90;99.90;;;16.37;90.32;100917.44;4968232;28;19929;-73
2023/07/13 04:28:00;;;;;;;;;;;17.00;99.90;;;16.52;88.94;100916.41;4972501;28;19920;-73
2023/07/13 04:30:26;;;;;;;;;;;17.10;99.90;;;16.76;87.81;100918.31;4971804;28;20386;-73
2023/07/13 04:32:52;;;;;;;;;;;17.20;99.90;;;17.23;85.93;100922.13;4977530;28;20268;-73
2023/07/13 04:35:20;;;;;;;;;;;17.70;99.90;;;17.70;84.47;100928.47;4978334;28;19914;-74
2023/07/13 04:37:50;;;;;;;;;;;17.80;99.90;;;20.94;76.71;100941.88;4979769;28;19921;-74
2023/07/13 04:40:17;;;;;;;;;;;19.50;99.90;;;23.68;67.82;100954.19;4953668;28;20481;-73
2023/07/13 04:42:45;;;;;;;;;;;21.60;99.90;;;25.37;61.83;100962.09;4961629;28;19922;-73
2023/07/13 04:45:12;;;;;;;;;;;23.20;99.90;;;27.36;56.82;100980.91;4974382;28;19940;-73
2023/07/13 04:47:38;;;;;;;;;;;24.90;99.90;;;28.66;53.65;100983.81;4978577;28;19917;-73
2023/07/13 04:50:05;;;;;;;;;;;26.20;99.90;;;30.14;50.64;101001.84;4980591;28;19956;-74
2023/07/13 04:52:32;;;;;;;;;;;27.50;99.90;;;31.37;47.22;101015.16;4958571;28;20376;-73
2023/07/13 04:55:00;;;;;;;;;;;29.30;99.90;;;32.47;45.54;101027.66;4980572;28;19922;-73
2023/07/13 04:57:26;;;;;;;;;;;29.60;99.90;;;33.40;43.82;101042.31;4979585;28;21294;-73
2023/07/13 04:59:52;;;;;;;;;;;30.60;99.40;;;34.11;41.57;101055.91;4978855;28;19929;-73
2023/07/13 05:02:20;;;;;;;;;;;31.30;97.00;;;34.85;39.67;101061.66;4969538;28;20008;-73
2023/07/13 05:04:48;;;;;;;;;;;32.50;95.00;;;35.59;39.20;101075.44;4979058;28;20617;-73
2023/07/13 05:07:14;;;;;;;;;;;32.60;95.30;;;36.17;37.27;101085.06;4969078;28;20018;-74
2023/07/13 05:09:40;;;;;;;;;;;33.20;94.30;;;36.85;36.39;101086.56;4971837;28;19929;-74
2023/07/13 05:12:08;;;;;;;;;;;33.70;93.50;;;37.59;36.12;101102.56;4978794;28;20000;-74
2023/07/13 05:14:34;;;;;;;;;;;34.70;91.60;;;38.09;34.77;101107.44;4968154;28;19925;-75
2023/07/13 05:16:59;;;;;;;;;;;34.70;92.00;;;38.65;34.14;101117.84;4978972;28;19936;-73
2023/07/13 05:19:25;;;;;;;;;;;35.10;91.70;;;39.07;33.10;101120.16;4961239;28;19926;-75
2023/07/13 05:21:51;;;;;;;;;;;35.60;91.00;;;39.23;34.04;101132.25;4979538;28;19968;-74
2023/07/13 05:24:17;;;;;;;;;;;35.90;91.60;;;38.72;34.78;101119.31;4970784;28;20298;-73
2023/07/13 05:26:42;;;;;;;;;;;36.00;92.00;;;38.24;34.66;101120.66;4979287;28;20351;-73
2023/07/13 05:29:08;;;;;;;;;;;35.90;91.00;;;37.76;34.34;101125.47;4971679;28;19935;-74
2023/07/13 05:31:33;;;;;;;;;;;35.60;90.30;;;35.02;36.44;101110.34;4969352;28;19917;-74
2023/07/13 05:33:59;;;;;;;;;;;34.80;90.00;;;34.81;38.39;101103.38;4979221;28;19968;-73
2023/07/13 05:36:25;;;;;;;;;;;33.90;91.30;;;37.08;34.94;101112.34;4976426;28;20404;-73
2023/07/13 05:38:50;;;;;;;;;;;34.10;91.30;;;35.86;36.31;101113.53;4970461;28;19935;-75
2023/07/13 05:41:16;;;;;;;;;;;34.20;91.40;;;33.93;37.60;101091.25;4980027;28;19917;-73
2023/07/13 05:43:42;;;;;;;;;;;33.70;90.70;;;34.74;36.64;101102.59;4979066;28;19936;-73
2023/07/13 05:46:07;;;;;;;;;;;33.20;90.60;;;36.78;34.98;101129.72;4978036;28;19914;-73
2023/07/13 05:48:33;;;;;;;;;;;33.50;91.30;;;38.44;33.99;101142.19;4979624;28;19917;-73
2023/07/13 05:50:59;;;;;;;;;;;34.30;91.70;;;39.90;32.53;101154.16;4981286;28;19913;-74
2023/07/13 05:53:24;;;;;;;;;;;35.30;91.20;;;41.00;31.56;101162.19;4961162;28;19926;-73
2023/07/13 05:55:50;;;;;;;;;;;36.80;89.70;;;41.82;30.53;101170.19;4972799;28;20005;-73
2023/07/13 05:58:17;;;;;;;;;;;37.40;89.80;;;42.19;28.09;101164.50;4972641;28;19921;-73
2023/07/13 06:00:43;;;;;;;;;;;38.20;83.60;;;42.02;28.70;101166.69;4981029;28;20007;-73
2023/07/13 06:03:08;;;;;;;;;;;38.60;83.10;;;42.06;28.96;101162.28;4971862;28;19925;-73
2023/07/13 06:05:36;;;;;;;;;;;39.00;82.10;;;42.60;28.27;101167.38;4983114;28;19917;-74
2023/07/13 06:08:02;;;;;;;;;;;39.10;81.40;;;43.05;28.36;101167.69;4983758;28;19913;-73
2023/07/13 06:10:28;;;;;;;;;;;39.60;81.80;;;43.27;26.04;101177.66;4981316;28;19913;-73
2023/07/13 06:12:54;;;;;;;;;;;40.10;76.90;;;42.91;26.52;101163.81;4981217;28;19913;-73
2023/07/13 06:15:19;;;;;;;;;;;40.30;75.70;;;42.87;26.04;101171.00;4982012;28;19921;-75
2023/07/13 06:17:45;;;;;;;;;;;40.40;74.90;;;43.19;27.38;101162.38;4983470;28;19921;-73
2023/07/13 06:20:11;;;;;;;;;;;40.50;78.00;;;42.38;26.24;101161.25;4975329;28;19921;-73
2023/07/13 06:22:36;;;;;;;;;;;40.50;72.70;;;41.81;28.31;101144.44;4982492;28;19917;-74
2023/07/13 06:25:02;;;;;;;;;;;40.20;76.20;;;41.20;27.84;101150.47;4971990;28;19914;-74
2023/07/13 06:27:28;;;;;;;;;;;39.70;74.80;;;40.95;26.83;101148.34;4954505;28;19925;-74
2023/07/13 06:29:54;;;;;;;;;;;39.50;72.00;;;41.35;27.84;101148.91;4977769;28;19925;-74
2023/07/13 06:32:20;;;;;;;;;;;39.40;75.50;;;41.64;27.04;101148.53;4953666;28;19922;-73
2023/07/13 06:34:46;;;;;;;;;;;39.60;73.10;;;40.28;27.21;101146.88;4994307;28;19922;-73
2023/07/13 06:37:11;;;;;;;;;;;39.50;71.60;;;38.53;29.62;101121.50;4958633;28;19920;-73
2023/07/13 06:39:37;;;;;;;;;;;38.70;73.70;;;39.00;27.87;101125.03;4981627;28;19918;-73
2023/07/13 06:42:04;;;;;;;;;;;38.20;70.60;;;39.38;28.46;101125.03;4981524;28;19930;-73
2023/07/13 06:44:30;;;;;;;;;;;38.10;72.70;;;38.78;29.13;101115.56;4964271;28;19921;-73
2023/07/13 06:46:55;;;;;;;;;;;37.80;74.60;;;39.10;29.72;101125.19;4981833;28;19920;-74
2023/07/13 06:49:21;;;;;;;;;;;37.90;76.40;;;39.95;27.75;101131.31;4982760;28;20017;-75
2023/07/13 06:51:47;;;;;;;;;;;38.20;72.50;;;40.70;27.47;101137.06;4973878;28;19944;-74
2023/07/13 06:54:13;;;;;;;;;;;38.70;72.60;;;41.36;27.66;101132.06;4972822;28;19932;-73
2023/07/13 06:56:39;;;;;;;;;;;39.40;73.90;;;41.56;26.09;101136.03;4987866;28;19957;-73
2023/07/13 06:59:05;;;;;;;;;;;40.00;70.40;;;41.99;25.58;101148.72;4965021;28;19921;-74
2023/07/13 07:01:30;;;;;;;;;;;40.30;69.40;;;41.87;26.37;101147.25;4982017;28;19918;-72
2023/07/13 07:03:56;;;;;;;;;;;40.50;71.10;;;42.04;26.44;101144.28;4980885;28;19914;-72
2023/07/13 07:06:25;;;;;;;;;;;40.80;71.40;;;41.64;26.08;101143.00;4985688;28;19960;-73
2023/07/13 07:08:52;;;;;;;;;;;40.80;68.80;;;41.10;25.80;101144.00;4980782;28;19949;-74
2023/07/13 07:11:24;;;;;;;;;;;40.60;67.00;;;40.82;26.29;101140.50;4973600;28;19921;-73
2023/07/13 07:13:51;;;;;;;;;;;40.50;67.20;;;40.77;26.96;101134.94;4972889;28;19918;-73
2023/07/13 07:16:18;;;;;;;;;;;40.30;69.50;;;40.76;27.26;101122.25;4979169;28;19925;-75
2023/07/13 07:18:44;;;;;;;;;;;40.20;68.70;;;40.30;25.92;101121.78;4953838;28;19921;-74
2023/07/13 07:21:10;;;;;;;;;;;40.10;65.40;;;39.35;25.66;101119.19;4980086;28;19914;-73
2023/07/13 07:23:36;;;;;;;;;;;39.70;63.30;;;38.92;26.31;101105.06;4981580;28;19925;-74
2023/07/13 07:26:01;;;;;;;;;;;39.10;64.50;;;38.32;27.79;101092.75;4980391;28;19913;-75
2023/07/13 07:28:28;;;;;;;;;;;38.80;66.10;;;38.68;27.01;101095.31;4971558;28;19963;-73
2023/07/13 07:30:56;;;;;;;;;;;38.60;66.10;;;38.81;27.30;101089.47;4953590;28;19932;-74
2023/07/13 07:33:22;;;;;;;;;;;38.50;67.30;;;38.68;27.12;101092.56;4978966;28;19969;-73
2023/07/13 07:35:48;;;;;;;;;;;38.50;65.80;;;38.55;27.02;101079.97;4989481;28;19916;-74
2023/07/13 07:38:13;;;;;;;;;;;38.40;65.90;;;38.60;27.40;101079.22;4978677;28;19918;-73
2023/07/13 07:40:40;;;;;;;;;;;38.30;66.40;;;38.15;26.95;101073.47;4982056;28;19917;-73
2023/07/13 07:43:10;;;;;;;;;;;38.30;66.00;;;38.04;27.13;101087.28;4963795;28;19937;-73
2023/07/13 07:45:37;;;;;;;;;;;38.00;65.90;;;37.83;27.21;101077.78;4979809;28;19921;-74
2023/07/13 07:48:04;;;;;;;;;;;37.90;65.30;;;37.43;27.66;101064.81;4970944;28;20373;-73
2023/07/13 07:50:30;;;;;;;;;;;37.70;65.40;;;37.15;26.91;101067.28;4973173;28;20429;-73
2023/07/13 07:52:56;;;;;;;;;;;37.40;64.20;;;36.63;28.38;101055.28;4962674;28;20630;-74
2023/07/13 07:55:23;;;;;;;;;;;37.10;67.20;;;36.52;29.06;101045.94;4979615;28;20373;-73
2023/07/13 07:57:49;;;;;;;;;;;36.70;68.10;;;36.00;28.59;101038.28;4979594;28;19918;-73
2023/07/13 08:00:16;;;;;;;;;;;36.50;66.10;;;35.69;29.70;101040.19;4981835;28;19984;-74
2023/07/13 08:02:43;;;;;;;;;;;36.10;67.40;;;35.70;29.60;101022.69;4979982;28;20008;-73
2023/07/13 08:05:09;;;;;;;;;;;35.90;67.80;;;35.51;29.81;101018.28;4978593;28;20015;-73
2023/07/13 08:07:36;;;;;;;;;;;35.70;68.40;;;35.20;29.89;101022.00;4979539;28;20528;-74
2023/07/13 08:10:01;;;;;;;;;;;35.50;68.30;;;35.30;30.31;101016.84;4980421;28;19960;-73
2023/07/13 08:12:27;;;;;;;;;;;35.20;69.30;;;35.55;30.19;101016.72;4978403;28;19929;-73
2023/07/13 08:15:00;;;;;;;;;;;35.20;69.50;;;35.39;29.95;101011.91;4981321;28;19918;-73
2023/07/13 08:17:26;;;;;;;;;;;35.10;70.10;;;35.27;30.24;101015.41;4970959;28;19977;-73
2023/07/13 08:19:52;;;;;;;;;;;35.00;68.90;;;34.86;30.18;100999.59;4970702;28;19914;-73
2023/07/13 08:22:17;;;;;;;;;;;34.80;68.50;;;34.59;30.81;100990.78;4977224;28;19924;-73
2023/07/13 08:24:43;;;;;;;;;;;34.50;69.90;;;33.92;30.97;100991.25;4988421;28;19944;-73
2023/07/13 08:27:11;;;;;;;;;;;34.20;68.10;;;33.23;30.72;100976.44;4970880;28;20382;-75
2023/07/13 08:29:37;;;;;;;;;;;33.70;67.10;;;32.62;33.24;100958.53;4963592;28;20371;-77
2023/07/13 08:32:05;;;;;;;;;;;33.10;71.90;;;32.10;32.88;100950.13;4978769;28;19963;-76
2023/07/13 08:34:31;;;;;;;;;;;32.70;70.00;;;31.75;33.61;100942.06;4978347;28;19918;-75
2023/07/13 08:36:57;;;;;;;;;;;32.20;71.50;;;31.14;35.00;100940.13;4965487;28;20425;-76
2023/07/13 08:39:22;;;;;;;;;;;31.60;73.70;;;30.21;35.55;100926.69;4988678;28;19914;-76
2023/07/13 08:41:53;;;;;;;;;;;31.10;73.50;;;30.11;35.73;100922.63;4978919;28;19929;-76
2023/07/13 08:44:41;;;;;;;;;;;30.70;73.80;;;29.26;36.90;100911.50;4970031;28;20378;-75
2023/07/13 08:47:11;;;;;;;;;;;30.20;74.30;;;28.88;37.73;100916.16;4965176;28;19924;-76
2023/07/13 08:49:37;;;;;;;;;;;29.80;76.50;;;28.86;38.87;100904.69;4977731;28;20290;-76
2023/07/13 08:52:37;;;;;;;;;;;29.50;78.50;;;29.09;39.00;100910.00;4978022;28;19920;-76
2023/07/13 08:55:17;;;;;;;;;;;29.50;79.00;;;29.24;37.50;100911.69;4938626;28;20021;-76
2023/07/13 08:57:48;;;;;;;;;;;29.60;76.90;;;29.49;37.51;100908.63;4930455;28;20423;-77
2023/07/13 09:00:16;;;;;;;;;;;29.80;77.80;;;29.52;36.36;100912.84;4931761;28;20640;-76
2023/07/13 09:02:57;;;;;;;;;;;29.90;75.20;;;29.60;37.00;100912.72;4930885;28;19918;-76
2023/07/13 09:05:34;;;;;;;;;;;29.90;77.00;;;29.81;37.10;100915.47;4931425;28;20402;-77
2023/07/13 09:08:22;;;;;;;;;;;30.10;77.30;;;29.89;36.70;100916.38;4937713;28;19918;-77
2023/07/13 09:10:52;;;;;;;;;;;30.20;76.90;;;30.05;36.42;100919.69;4939999;28;20008;-77
2023/07/13 09:13:30;;;;;;;;;;;30.30;76.20;;;30.14;36.14;100917.66;4922655;28;19918;-77
2023/07/13 09:15:58;;;;;;;;;;;30.40;75.40;;;30.08;35.97;100925.75;4937694;28;19946;-76
2023/07/13 09:18:36;;;;;;;;;;;30.40;75.10;;;30.22;36.61;100913.97;4938378;28;20596;-77
2023/07/13 09:21:22;;;;;;;;;;;30.50;77.30;;;30.22;34.85;100922.97;4929553;28;20028;-76
2023/07/13 09:23:48;;;;;;;;;;;30.60;73.20;;;30.23;34.22;100937.38;4929540;28;20461;-77
2023/07/13 09:26:27;;;;;;;;;;;30.60;72.00;;;30.25;33.45;100935.31;4915221;29;19918;-76
2023/07/13 09:29:03;;;;;;;;;;;30.60;70.70;;;30.19;33.95;100944.22;4930487;28;19932;-76
2023/07/13 09:31:42;;;;;;;;;;;30.60;72.10;;;30.30;34.60;100948.31;4977035;28;19921;-77
2023/07/13 09:34:14;;;;;;;;;;;30.60;73.00;;;30.05;35.18;100952.25;4982505;28;20393;-77
2023/07/13 09:36:44;;;;;;;;;;;30.50;73.50;;;30.17;35.75;100941.72;4933784;28;19917;-76
2023/07/13 09:39:24;;;;;;;;;;;30.50;75.10;;;29.97;34.80;100946.13;4966100;28;19918;-76
2023/07/13 09:42:18;;;;;;;;;;;30.50;72.40;;;29.65;35.42;100946.41;4961139;28;19916;-77
2023/07/13 09:44:50;;;;;;;;;;;30.30;73.30;;;29.48;36.73;100936.78;4980249;28;19913;-76
2023/07/13 09:47:26;;;;;;;;;;;30.00;75.80;;;29.14;36.20;100935.53;4984802;28;19953;-77
2023/07/13 09:50:06;;;;;;;;;;;29.80;74.60;;;28.89;36.93;100931.41;4984670;28;19921;-76
2023/07/13 09:52:46;;;;;;;;;;;29.50;75.30;;;29.10;36.28;100931.53;4983641;28;19945;-77
2023/07/13 09:55:35;;;;;;;;;;;29.50;75.30;;;29.17;36.41;100921.59;4987325;28;19953;-77
2023/07/13 09:58:31;;;;;;;4.72;1.33;;;29.50;73.70;;;29.30;37.05;100922.81;5059331;27;20824;-75
2023/07/13 10:01:04;;;;;;;5.75;1.65;;;29.70;72.20;;;29.52;36.36;100929.13;5029398;28;20030;-76
2023/07/13 10:03:39;;;;;;;5.32;1.38;;;29.80;73.30;;;29.61;35.93;100925.25;5019999;28;20046;-76
2023/07/13 10:06:26;;;;;;;7.00;1.42;;;29.80;74.80;;;29.70;35.54;100929.56;5035003;28;20041;-77
2023/07/13 10:08:53;;;;;;;;;;;29.90;74.90;;;29.70;35.47;100932.28;5003956;28;20034;-76
2023/07/13 10:11:25;;;;;;;;;;;29.90;74.10;;;29.82;35.83;100935.31;5028753;28;19922;-76
2023/07/13 10:14:02;;;;;;;4.00;1.25;;;30.10;73.20;;;29.98;35.81;100939.63;5021127;28;19921;-77
2023/07/13 10:16:36;;;;;;;6.00;1.77;;;30.30;75.60;;;30.22;36.07;100943.84;5021862;28;20056;-77
2023/07/13 10:19:31;;;;;;;6.35;1.80;;;30.50;72.70;;;30.29;34.58;100952.09;5033113;28;20040;-77
2023/07/13 10:22:14;;;;;;;5.50;1.67;;;30.60;73.10;;;30.40;35.63;100952.38;5022908;28;20061;-76
2023/07/13 10:24:41;;;;;;;7.03;1.73;;;30.70;71.30;;;30.52;34.37;100957.28;5017672;28;20033;-76
2023/07/13 10:27:25;;;;;;;6.60;1.60;;;30.80;71.20;;;30.63;35.20;100954.88;5058779;28;20044;-76
2023/07/13 10:30:28;;;;;;;4.25;1.30;;;30.80;70.70;;;30.58;34.38;100959.19;5045113;28;20498;-76
2023/07/13 10:32:56;;;;;;;6.85;1.73;;;30.80;70.90;;;30.31;34.46;100960.88;5039433;28;20040;-76
2023/07/13 10:35:26;;;;;;;4.75;1.48;;;30.60;70.50;;;29.86;34.72;100958.31;5022818;28;20128;-76
2023/07/13 10:38:10;;;;;;;5.25;1.50;;;30.30;71.10;;;29.55;34.77;100959.44;5041595;28;22514;-76
2023/07/13 10:41:10;;;;;;;4.90;1.42;;;29.90;73.70;;;29.10;36.23;100942.38;5037778;28;20049;-77
2023/07/13 10:43:43;;;;;;;6.35;1.52;;;29.50;72.60;;;28.86;36.28;100937.22;5009047;28;20053;-76
2023/07/13 10:46:14;;;;;;;13.80;1.65;;;29.20;73.70;;;28.69;36.93;100939.25;4988027;28;20051;-76
2023/07/13 10:48:46;;;;;;;2.70;1.40;;;29.10;75.50;;;28.59;37.56;100937.63;4989309;28;20080;-76
2023/07/13 10:51:15;;;;;;;8.88;1.67;;;28.90;76.00;;;28.61;38.07;100929.31;5003624;28;20057;-76
2023/07/13 10:53:42;;;;;;;2.97;1.23;;;28.90;76.60;;;28.62;37.20;100917.47;5005688;28;20029;-75
2023/07/13 10:56:30;;;;;;;7.68;1.35;;;29.00;77.70;;;28.87;38.51;100926.16;5020508;28;20557;-76
2023/07/13 10:59:27;;;;;;;4.93;1.30;;;29.20;78.10;;;29.26;37.75;100925.03;5023366;28;20113;-76
2023/07/13 11:02:15;;;;;;;5.95;1.40;;;29.50;76.50;;;29.51;37.28;100936.41;5040488;28;20526;-76
2023/07/13 11:04:48;;;;;;;4.13;1.50;;;29.70;77.20;;;29.81;35.95;100941.78;5034117;28;20037;-77